createdAt,value
2023-04-28T00:00:45.041Z,47.94
2023-04-28T00:05:49.696Z,47.80
2023-04-28T00:10:54.145Z,47.65
2023-04-28T00:15:56.260Z,47.43
2023-04-28T00:20:57.962Z,47.51
2023-04-28T00:25:59.615Z,47.39
2023-04-28T00:31:01.350Z,47.68
2023-04-28T00:36:03.369Z,47.61
2023-04-28T00:41:06.724Z,48.20
2023-04-28T00:46:08.555Z,48.38
2023-04-28T00:51:10.401Z,47.96
2023-04-28T00:56:12.862Z,47.94
2023-04-28T01:01:16.245Z,48.21
2023-04-28T01:06:18.607Z,48.46
2023-04-28T01:11:20.657Z,48.75
2023-04-28T01:16:43.278Z,48.26
2023-04-28T01:21:44.993Z,48.28
2023-04-28T01:26:56.592Z,49.00
2023-04-28T01:31:58.496Z,48.67
2023-04-28T01:37:00.392Z,49.03
2023-04-28T01:42:02.361Z,49.00
2023-04-28T01:47:04.092Z,49.42
2023-04-28T01:52:06.946Z,48.75
2023-04-28T01:57:08.785Z,49.53
2023-04-28T02:02:11.665Z,49.58
2023-04-28T02:07:13.401Z,49.94
2023-04-28T02:12:18.584Z,50.14
2023-04-28T02:17:20.791Z,50.50
2023-04-28T02:22:23.096Z,50.60
2023-04-28T02:27:24.879Z,51.69
2023-04-28T02:32:26.846Z,51.87
2023-04-28T02:37:28.502Z,52.09
2023-04-28T02:42:30.285Z,52.25
2023-04-28T02:47:31.997Z,52.29
2023-04-28T02:52:33.926Z,52.68
2023-04-28T02:57:35.838Z,52.63
2023-04-28T03:02:38.091Z,53.11
2023-04-28T03:07:39.964Z,52.94
2023-04-28T03:12:41.640Z,53.13
2023-04-28T03:17:43.558Z,53.57
2023-04-28T03:22:46.086Z,53.91
2023-04-28T03:27:48.323Z,53.76
2023-04-28T03:32:50.048Z,53.39
2023-04-28T03:37:54.707Z,53.90
2023-04-28T03:43:00.882Z,54.50
2023-04-28T03:48:08.063Z,54.53
2023-04-28T03:53:09.705Z,54.25
2023-04-28T03:58:11.454Z,53.90
2023-04-28T04:03:13.260Z,53.59
2023-04-28T04:08:15.454Z,54.02
2023-04-28T04:13:19.830Z,54.15
2023-04-28T04:18:22.241Z,54.48
2023-04-28T04:23:53.021Z,54.18
2023-04-28T04:28:54.701Z,54.34
2023-04-28T04:33:56.398Z,54.70
2023-04-28T04:38:59.002Z,54.51
2023-04-28T04:44:01.053Z,54.82
2023-04-28T04:49:10.571Z,54.92
2023-04-28T04:54:12.313Z,55.82
2023-04-28T04:59:17.637Z,60.90
2023-04-28T05:04:30.663Z,64.77
2023-04-28T05:09:33.216Z,66.22
2023-04-28T05:14:35.647Z,67.90
2023-04-28T05:19:37.580Z,68.96
2023-04-28T05:24:39.506Z,69.32
2023-04-28T05:29:41.587Z,70.58
2023-04-28T05:34:44.848Z,69.09
2023-04-28T05:39:47.535Z,70.29
2023-04-28T05:44:49.281Z,71.77
2023-04-28T05:49:51.082Z,72.20
2023-04-28T05:54:52.842Z,72.45
2023-04-28T05:59:54.588Z,72.85
2023-04-28T06:04:57.165Z,73.69
2023-04-28T06:09:59.528Z,75.63
2023-04-28T06:15:01.260Z,74.86
2023-04-28T06:20:03.391Z,75.90
2023-04-28T06:25:06.666Z,76.32
2023-04-28T06:30:27.181Z,77.30
2023-04-28T06:35:29.804Z,78.05
2023-04-28T06:40:31.945Z,77.94
2023-04-28T06:45:35.605Z,77.29
2023-04-28T06:50:37.997Z,76.14
2023-04-28T06:55:50.839Z,76.23
2023-04-28T07:00:52.528Z,77.93
2023-04-28T07:05:54.267Z,78.10
2023-04-28T07:10:56.036Z,77.92
2023-04-28T07:15:57.846Z,78.26
2023-04-28T07:20:59.653Z,77.66
2023-04-28T07:26:01.378Z,78.57
2023-04-28T07:31:03.117Z,78.03
2023-04-28T07:36:06.246Z,78.07
2023-04-28T07:41:10.105Z,79.01
2023-04-28T07:46:13.423Z,79.28
2023-04-28T07:51:15.066Z,78.74
2023-04-28T07:56:17.626Z,81.04
2023-04-28T08:01:19.388Z,82.91
2023-04-28T08:06:21.031Z,84.11
2023-04-28T08:11:22.815Z,84.30
2023-04-28T08:16:24.763Z,83.92
2023-04-28T08:21:27.115Z,84.90
2023-04-28T08:26:29.428Z,85.80
2023-04-28T08:31:31.243Z,86.95
2023-04-28T08:36:33.544Z,87.81
2023-04-28T08:41:41.096Z,89.07
2023-04-28T08:46:44.321Z,91.23
2023-04-28T08:51:51.260Z,92.37
2023-04-28T08:56:53.051Z,94.36
2023-04-28T09:01:54.804Z,96.30
2023-04-28T09:06:56.579Z,99.05
2023-04-28T09:12:00.936Z,100.00
2023-04-28T09:17:09.171Z,100.00
2023-04-28T09:22:25.613Z,100.00
2023-04-28T09:27:29.496Z,100.00
2023-04-28T09:32:31.820Z,100.00
2023-04-28T09:37:37.379Z,100.00
2023-04-28T09:42:44.175Z,100.00
2023-04-28T09:47:51.968Z,100.00
2023-04-28T09:52:57.829Z,100.00
2023-04-28T09:58:06.054Z,100.00
2023-04-28T10:03:09.795Z,100.00
2023-04-28T10:08:13.595Z,100.00
2023-04-28T10:13:19.549Z,100.00
2023-04-28T10:18:23.815Z,100.00
2023-04-28T10:23:25.444Z,100.00
2023-04-28T10:28:27.799Z,100.00
2023-04-28T10:33:29.956Z,100.00
2023-04-28T10:38:32.188Z,100.00
2023-04-28T10:43:39.312Z,100.00
2023-04-28T10:48:47.650Z,100.00
2023-04-28T10:53:50.352Z,100.00
2023-04-28T10:58:54.243Z,100.00
2023-04-28T11:04:01.117Z,100.00
2023-04-28T11:09:15.445Z,100.00
2023-04-28T11:14:18.503Z,100.00
2023-04-28T11:19:22.347Z,100.00
2023-04-28T11:24:29.531Z,100.00
2023-04-28T11:29:38.424Z,100.00
2023-04-28T11:34:40.119Z,100.00
2023-04-28T11:39:42.655Z,100.00
2023-04-28T11:44:52.864Z,100.00
2023-04-28T11:49:54.542Z,100.00
2023-04-28T11:55:00.072Z,100.00
2023-04-28T12:00:19.212Z,100.00
2023-04-28T12:05:22.515Z,100.00
2023-04-28T12:10:24.361Z,100.00
2023-04-28T12:15:40.855Z,100.00
2023-04-28T12:20:43.611Z,100.00
2023-04-28T12:25:46.324Z,100.00
2023-04-28T12:30:49.046Z,100.00
2023-04-28T12:35:50.771Z,100.00
2023-04-28T12:40:52.900Z,100.00
2023-04-28T12:45:58.030Z,100.00
2023-04-28T12:51:00.450Z,100.00
2023-04-28T12:56:02.173Z,100.00
2023-04-28T13:01:04.673Z,100.00
2023-04-28T13:06:06.329Z,100.00
2023-04-28T13:11:21.988Z,100.00
2023-04-28T13:16:29.911Z,100.00
2023-04-28T13:21:31.962Z,100.00
2023-04-28T13:26:33.771Z,100.00
2023-04-28T13:31:35.607Z,100.00
2023-04-28T13:36:37.429Z,100.00
2023-04-28T13:41:39.010Z,100.00
2023-04-28T13:46:40.692Z,100.00
2023-04-28T13:51:42.775Z,100.00
2023-04-28T13:56:44.411Z,100.00
2023-04-28T14:01:46.296Z,100.00
2023-04-28T14:06:50.602Z,100.00
2023-04-28T14:11:52.209Z,100.00
2023-04-28T14:16:53.923Z,100.00
2023-04-28T14:21:55.731Z,100.00
2023-04-28T14:26:57.878Z,100.00
2023-04-28T14:31:59.538Z,100.00
2023-04-28T14:37:01.362Z,100.00
2023-04-28T14:42:03.963Z,100.00
2023-04-28T14:47:05.599Z,100.00
2023-04-28T14:52:07.268Z,100.00
2023-04-28T14:57:08.939Z,100.00
2023-04-28T15:02:12.632Z,100.00
2023-04-28T15:07:14.552Z,100.00
2023-04-28T15:12:16.290Z,100.00
2023-04-28T15:17:20.721Z,100.00
2023-04-28T15:22:22.430Z,100.00
2023-04-28T15:27:24.109Z,100.00
2023-04-28T15:32:26.266Z,100.00
2023-04-28T15:37:44.562Z,100.00
2023-04-28T15:42:49.638Z,100.00
2023-04-28T15:47:51.872Z,100.00
2023-04-28T15:52:53.714Z,100.00
2023-04-28T15:57:56.372Z,100.00
2023-04-28T16:02:58.189Z,100.00
2023-04-28T16:08:00.145Z,100.00
2023-04-28T16:13:02.066Z,100.00
2023-04-28T16:18:07.157Z,100.00
2023-04-28T16:23:13.309Z,100.00
2023-04-28T16:28:15.804Z,100.00
2023-04-28T16:33:20.115Z,100.00
2023-04-28T16:38:23.900Z,100.00
2023-04-28T16:43:25.635Z,100.00
2023-04-28T16:48:27.750Z,100.00
2023-04-28T16:53:29.392Z,100.00
2023-04-28T16:58:31.502Z,100.00
2023-04-28T17:03:34.457Z,100.00
2023-04-28T17:08:36.574Z,100.00
2023-04-28T17:13:38.444Z,100.00
2023-04-28T17:18:41.352Z,100.00
2023-04-28T17:23:43.050Z,100.00
2023-04-28T17:28:44.717Z,100.00
2023-04-28T17:33:48.615Z,100.00
2023-04-28T17:38:51.048Z,100.00
2023-04-28T17:43:52.735Z,100.00
2023-04-28T17:48:54.399Z,100.00
2023-04-28T17:53:56.980Z,100.00
2023-04-28T17:58:58.700Z,100.00
2023-04-28T18:04:00.470Z,100.00
2023-04-28T18:09:02.321Z,100.00
2023-04-28T18:14:05.082Z,100.00
2023-04-28T18:19:06.676Z,100.00
2023-04-28T18:24:08.429Z,100.00
2023-04-28T18:29:10.109Z,100.00
2023-04-28T18:34:11.921Z,100.00
2023-04-28T18:39:13.701Z,100.00
2023-04-28T18:44:15.326Z,100.00
2023-04-28T18:49:18.565Z,100.00
2023-04-28T18:54:20.288Z,100.00
2023-04-28T18:59:21.931Z,100.00
2023-04-28T19:04:23.928Z,100.00
2023-04-28T19:09:25.812Z,100.00
2023-04-28T19:14:27.388Z,100.00
2023-04-28T19:19:28.997Z,100.00
2023-04-28T19:24:30.656Z,100.00
2023-04-28T19:29:32.401Z,100.00
2023-04-28T19:34:34.031Z,100.00
2023-04-28T19:39:36.449Z,100.00
2023-04-28T19:44:38.261Z,100.00
2023-04-28T19:49:42.378Z,100.00
2023-04-28T19:54:45.062Z,99.54
2023-04-28T19:59:50.415Z,99.63
2023-04-28T20:04:52.294Z,97.60
2023-04-28T20:09:56.149Z,97.51
2023-04-28T20:14:57.987Z,96.85
2023-04-28T20:19:59.620Z,96.74
2023-04-28T20:25:05.876Z,97.45
2023-04-28T20:30:08.016Z,96.64
2023-04-28T20:35:09.941Z,95.01
2023-04-28T20:40:12.132Z,94.51
2023-04-28T20:45:13.807Z,94.93
2023-04-28T20:50:15.691Z,95.65
2023-04-28T20:55:17.809Z,94.37
2023-04-28T21:00:19.673Z,93.76
2023-04-28T21:05:22.650Z,93.66
2023-04-28T21:10:24.281Z,93.37
2023-04-28T21:15:26.286Z,93.49
2023-04-28T21:20:28.750Z,93.43
2023-04-28T21:25:30.564Z,93.76
2023-04-28T21:30:34.644Z,94.02
2023-04-28T21:35:36.630Z,92.89
2023-04-28T21:40:38.198Z,93.80
2023-04-28T21:45:39.821Z,94.20
2023-04-28T21:50:41.735Z,94.08
2023-04-28T21:55:44.732Z,94.26
2023-04-28T22:00:47.361Z,93.26
2023-04-28T22:05:49.432Z,93.65
2023-04-28T22:10:51.194Z,91.97
2023-04-28T22:15:53.030Z,93.43
2023-04-28T22:20:54.689Z,92.14
2023-04-28T22:26:01.143Z,91.26
2023-04-28T22:31:03.220Z,91.25
2023-04-28T22:36:05.500Z,90.71
2023-04-28T22:41:07.058Z,90.47
2023-04-28T22:46:08.911Z,91.74
2023-04-28T22:51:10.663Z,92.04
2023-04-28T22:56:12.292Z,92.73
2023-04-28T23:01:14.059Z,92.12
2023-04-28T23:06:15.929Z,91.66
2023-04-28T23:11:19.107Z,91.28
2023-04-28T23:16:20.980Z,91.13
2023-04-28T23:21:22.891Z,90.94
2023-04-28T23:26:24.807Z,92.19
2023-04-28T23:31:26.643Z,92.88
2023-04-28T23:36:28.766Z,92.75
2023-04-28T23:41:30.525Z,93.14
2023-04-28T23:46:32.181Z,92.85
2023-04-28T23:51:33.793Z,93.35
2023-04-28T23:56:35.454Z,94.46
